createdAt,value
2022-12-22T00:01:14.704Z,46.10
2022-12-22T00:03:59.844Z,45.10
2022-12-22T00:06:45.261Z,47.00
2022-12-22T00:09:30.516Z,44.70
2022-12-22T00:12:16.202Z,44.50
2022-12-22T00:15:02.947Z,42.40
2022-12-22T00:17:47.770Z,42.10
2022-12-22T00:20:36.583Z,44.20
2022-12-22T00:23:21.640Z,43.90
2022-12-22T00:26:07.052Z,45.20
2022-12-22T00:28:54.507Z,46.80
2022-12-22T00:31:40.696Z,46.50
2022-12-22T00:34:38.215Z,44.20
2022-12-22T00:37:23.328Z,45.60
2022-12-22T00:40:08.352Z,47.70
2022-12-22T00:42:53.701Z,46.60
2022-12-22T00:45:38.813Z,45.60
2022-12-22T00:48:27.093Z,45.00
2022-12-22T00:51:12.562Z,43.50
2022-12-22T00:53:57.341Z,43.60
2022-12-22T00:56:42.268Z,44.70
2022-12-22T00:59:27.834Z,44.70
2022-12-22T01:02:13.081Z,45.60
2022-12-22T01:04:57.931Z,44.80
2022-12-22T01:07:44.920Z,44.30
2022-12-22T01:10:32.161Z,45.20
2022-12-22T01:13:18.035Z,43.70
2022-12-22T01:16:03.857Z,46.30
2022-12-22T01:18:48.931Z,44.10
2022-12-22T01:21:35.064Z,43.40
2022-12-22T01:24:20.442Z,40.90
2022-12-22T01:27:05.617Z,41.00
2022-12-22T01:29:50.802Z,42.00
2022-12-22T01:32:35.707Z,42.90
2022-12-22T01:35:20.866Z,42.10
2022-12-22T01:38:05.828Z,41.70
2022-12-22T01:40:50.936Z,40.80
2022-12-22T01:43:43.451Z,40.00
2022-12-22T01:46:47.326Z,39.00
2022-12-22T01:49:37.155Z,38.70
2022-12-22T01:52:24.316Z,36.70
2022-12-22T01:55:10.444Z,36.10
2022-12-22T01:57:55.600Z,34.90
2022-12-22T02:00:41.506Z,33.70
2022-12-22T02:03:37.959Z,33.60
2022-12-22T02:06:59.927Z,32.90
2022-12-22T02:09:52.421Z,31.30
2022-12-22T02:12:49.537Z,33.30
2022-12-22T02:15:48.791Z,31.50
2022-12-22T02:18:41.154Z,32.20
2022-12-22T02:21:31.749Z,32.40
2022-12-22T02:24:35.463Z,32.60
2022-12-22T02:27:21.006Z,31.60
2022-12-22T02:30:10.847Z,30.00
2022-12-22T02:33:03.809Z,32.00
2022-12-22T02:36:23.308Z,31.80
2022-12-22T02:39:39.129Z,31.20
2022-12-22T02:42:24.187Z,32.00
2022-12-22T02:45:57.094Z,32.10
2022-12-22T02:48:50.384Z,32.70
2022-12-22T02:51:41.183Z,31.60
2022-12-22T02:54:26.980Z,33.80
2022-12-22T02:57:12.715Z,32.60
2022-12-22T02:59:57.762Z,34.00
2022-12-22T03:02:43.019Z,35.70
2022-12-22T03:05:28.192Z,34.80
2022-12-22T03:08:13.234Z,34.30
2022-12-22T03:10:58.395Z,34.40
2022-12-22T03:13:43.802Z,34.60
2022-12-22T03:16:29.154Z,33.40
2022-12-22T03:19:14.379Z,33.60
2022-12-22T03:21:59.522Z,33.30
2022-12-22T03:24:44.707Z,36.10
2022-12-22T03:27:11.424Z,35.20
2022-12-22T03:29:38.040Z,34.50
2022-12-22T03:32:04.822Z,32.50
2022-12-22T03:34:31.529Z,31.00
2022-12-22T03:36:58.137Z,31.60
2022-12-22T03:39:24.840Z,31.50
2022-12-22T03:42:10.067Z,32.00
2022-12-22T03:44:55.021Z,29.70
2022-12-22T03:47:21.578Z,30.30
2022-12-22T03:49:48.148Z,30.00
2022-12-22T03:52:14.772Z,29.50
2022-12-22T03:54:41.345Z,29.90
2022-12-22T03:57:07.948Z,30.50
2022-12-22T03:59:34.557Z,31.20
2022-12-22T04:02:01.375Z,31.60
2022-12-22T04:04:28.047Z,31.60
2022-12-22T04:06:54.874Z,30.60
2022-12-22T04:09:25.423Z,31.20
2022-12-22T04:12:10.527Z,31.20
2022-12-22T04:14:37.582Z,31.50
2022-12-22T04:17:05.689Z,32.00
2022-12-22T04:19:32.628Z,34.70
2022-12-22T04:21:59.308Z,34.50
2022-12-22T04:24:25.994Z,34.30
2022-12-22T04:26:52.816Z,34.10
2022-12-22T04:29:19.478Z,33.20
2022-12-22T04:31:46.193Z,33.40
2022-12-22T04:34:12.855Z,32.60
2022-12-22T04:36:39.462Z,37.00
2022-12-22T04:39:06.032Z,38.00
2022-12-22T04:41:32.667Z,36.50
2022-12-22T04:43:59.273Z,38.30
2022-12-22T04:46:25.993Z,37.40
2022-12-22T04:48:59.340Z,37.70
2022-12-22T04:51:28.248Z,38.50
2022-12-22T04:53:55.261Z,39.50
2022-12-22T04:56:21.858Z,38.70
2022-12-22T04:58:48.498Z,38.60
2022-12-22T05:01:17.383Z,39.50
2022-12-22T05:03:44.306Z,39.70
2022-12-22T05:06:13.369Z,41.50
2022-12-22T05:08:40.101Z,41.80
2022-12-22T05:11:07.060Z,42.30
2022-12-22T05:13:34.236Z,42.40
2022-12-22T05:16:13.021Z,43.20
2022-12-22T05:18:42.892Z,44.00
2022-12-22T05:21:15.205Z,42.80
2022-12-22T05:23:42.098Z,41.30
2022-12-22T05:26:09.673Z,38.60
2022-12-22T05:28:36.601Z,39.30
2022-12-22T05:31:24.695Z,41.80
2022-12-22T05:33:52.205Z,39.80
2022-12-22T05:36:19.389Z,38.40
2022-12-22T05:38:46.441Z,38.30
2022-12-22T05:41:13.650Z,38.30
2022-12-22T05:43:40.346Z,37.90
2022-12-22T05:46:10.839Z,40.70
2022-12-22T05:48:39.633Z,39.40
2022-12-22T05:51:08.344Z,43.00
2022-12-22T05:53:35.467Z,40.80
2022-12-22T05:56:02.176Z,40.00
2022-12-22T05:58:29.024Z,39.70
2022-12-22T06:00:59.509Z,40.70
2022-12-22T06:03:27.207Z,39.50
2022-12-22T06:05:54.971Z,40.40
2022-12-22T06:08:21.958Z,38.20
2022-12-22T06:10:48.950Z,38.10
2022-12-22T06:13:15.664Z,37.30
2022-12-22T06:15:42.398Z,37.20
2022-12-22T06:18:08.993Z,42.60
2022-12-22T06:20:35.584Z,42.60
2022-12-22T06:23:02.145Z,39.50
2022-12-22T06:25:28.822Z,37.10
2022-12-22T06:27:55.435Z,35.80
2022-12-22T06:30:27.396Z,35.30
2022-12-22T06:32:59.360Z,35.00
2022-12-22T06:35:25.940Z,34.90
2022-12-22T06:37:52.485Z,34.90
2022-12-22T06:40:19.085Z,34.20
2022-12-22T06:43:08.689Z,36.40
2022-12-22T06:45:38.167Z,36.70
2022-12-22T06:48:05.702Z,37.80
2022-12-22T06:50:32.517Z,36.70
2022-12-22T06:52:59.567Z,37.40
2022-12-22T06:55:26.392Z,37.30
2022-12-22T06:57:52.996Z,40.30
2022-12-22T07:00:20.288Z,39.90
2022-12-22T07:02:47.062Z,40.00
2022-12-22T07:05:15.049Z,38.30
2022-12-22T07:07:42.033Z,37.80
2022-12-22T07:10:09.358Z,38.30
2022-12-22T07:12:36.011Z,36.90
2022-12-22T07:15:03.486Z,38.70
2022-12-22T07:17:30.088Z,41.60
2022-12-22T07:19:56.718Z,41.70
2022-12-22T07:22:29.522Z,43.00
2022-12-22T07:24:57.630Z,44.40
2022-12-22T07:27:24.257Z,44.70
2022-12-22T07:29:50.941Z,43.20
2022-12-22T07:32:17.525Z,43.60
2022-12-22T07:34:44.735Z,40.50
2022-12-22T07:37:13.033Z,42.70
2022-12-22T07:39:39.644Z,41.60
2022-12-22T07:42:25.114Z,38.70
2022-12-22T07:44:51.859Z,37.50
2022-12-22T07:47:18.592Z,37.50
2022-12-22T07:50:03.439Z,41.00
2022-12-22T07:52:30.110Z,47.40
2022-12-22T07:54:56.664Z,45.40
2022-12-22T07:57:25.577Z,42.30
2022-12-22T07:59:52.827Z,44.10
2022-12-22T08:02:19.466Z,43.90
2022-12-22T08:04:46.187Z,42.40
2022-12-22T08:07:12.989Z,43.70
2022-12-22T08:09:39.593Z,42.20
2022-12-22T08:12:06.405Z,42.90
2022-12-22T08:14:33.088Z,41.40
2022-12-22T08:16:59.684Z,41.50
2022-12-22T08:19:26.355Z,41.20
2022-12-22T08:21:53.528Z,40.70
2022-12-22T08:24:20.988Z,42.10
2022-12-22T08:26:51.103Z,45.60
2022-12-22T08:29:23.474Z,45.70
2022-12-22T08:31:50.166Z,43.50
2022-12-22T08:34:16.897Z,42.00
2022-12-22T08:36:47.891Z,41.50
2022-12-22T08:39:16.288Z,43.60
2022-12-22T08:41:51.965Z,46.50
2022-12-22T08:44:26.997Z,45.30
2022-12-22T08:46:55.549Z,44.30
2022-12-22T08:49:22.650Z,41.90
2022-12-22T08:51:49.722Z,42.80
2022-12-22T08:54:16.551Z,43.70
2022-12-22T08:56:44.887Z,44.50
2022-12-22T08:59:12.307Z,42.90
2022-12-22T09:01:46.798Z,43.60
2022-12-22T09:04:15.302Z,43.90
2022-12-22T09:06:41.940Z,41.90
2022-12-22T09:09:11.259Z,41.00
2022-12-22T09:11:39.616Z,42.70
2022-12-22T09:14:07.660Z,47.60
2022-12-22T09:16:35.124Z,51.00
2022-12-22T09:19:02.778Z,51.60
2022-12-22T09:21:30.130Z,44.50
2022-12-22T09:23:57.247Z,40.30
2022-12-22T09:26:28.142Z,38.30
2022-12-22T09:28:55.008Z,43.00
2022-12-22T09:31:23.451Z,46.80
2022-12-22T09:33:51.054Z,45.80
2022-12-22T09:36:24.308Z,43.80
2022-12-22T09:38:51.191Z,42.40
2022-12-22T09:41:36.663Z,43.50
2022-12-22T09:44:06.086Z,45.40
2022-12-22T09:46:35.741Z,43.40
2022-12-22T09:49:07.309Z,43.40
2022-12-22T09:51:41.153Z,41.50
2022-12-22T09:54:10.913Z,39.70
2022-12-22T09:56:37.958Z,37.20
2022-12-22T09:59:10.276Z,35.70
2022-12-22T10:02:03.292Z,36.70
2022-12-22T10:04:49.031Z,43.30
2022-12-22T10:07:30.169Z,47.60
2022-12-22T10:10:04.326Z,47.40
2022-12-22T10:12:31.061Z,45.20
2022-12-22T10:14:57.834Z,41.00
2022-12-22T10:17:33.669Z,39.30
2022-12-22T10:20:18.760Z,42.20
2022-12-22T10:22:49.228Z,39.00
2022-12-22T10:25:39.860Z,39.80
2022-12-22T10:28:21.934Z,42.30
2022-12-22T10:30:48.892Z,42.20
2022-12-22T10:33:18.422Z,38.50
2022-12-22T10:35:50.447Z,37.70
2022-12-22T10:38:22.595Z,34.30
2022-12-22T10:41:02.195Z,32.40
2022-12-22T10:43:33.734Z,31.20
2022-12-22T10:46:03.183Z,32.20
2022-12-22T10:48:36.227Z,34.60
2022-12-22T10:51:07.191Z,36.60
2022-12-22T10:53:38.362Z,38.60
2022-12-22T10:56:07.152Z,36.00
2022-12-22T10:58:55.451Z,34.90
2022-12-22T11:01:27.913Z,31.60
2022-12-22T11:03:55.258Z,33.90
2022-12-22T11:06:22.221Z,34.60
2022-12-22T11:08:51.888Z,35.90
2022-12-22T11:11:51.415Z,35.50
2022-12-22T11:14:32.551Z,33.40
2022-12-22T11:17:20.883Z,35.00
2022-12-22T11:20:14.156Z,33.90
2022-12-22T11:23:08.034Z,33.60
2022-12-22T11:25:45.038Z,33.70
2022-12-22T11:28:20.688Z,32.70
2022-12-22T11:30:54.408Z,33.30
2022-12-22T11:33:44.238Z,33.30
2022-12-22T11:36:35.927Z,35.10
2022-12-22T11:39:19.603Z,34.00
2022-12-22T11:41:49.279Z,35.50
2022-12-22T11:44:34.442Z,39.00
2022-12-22T11:47:16.988Z,40.40
2022-12-22T11:49:47.840Z,39.40
2022-12-22T11:53:15.818Z,38.50
2022-12-22T11:56:16.384Z,35.70
2022-12-22T11:58:43.049Z,37.30
2022-12-22T12:01:17.512Z,38.30
2022-12-22T12:03:58.019Z,40.40
2022-12-22T12:06:47.895Z,39.10
2022-12-22T12:09:32.439Z,40.50
2022-12-22T12:12:26.817Z,39.50
2022-12-22T12:14:59.367Z,41.20
2022-12-22T12:17:44.189Z,40.70
2022-12-22T12:20:28.177Z,39.50
2022-12-22T12:23:25.628Z,40.40
2022-12-22T12:26:05.135Z,40.30
2022-12-22T12:29:13.431Z,42.00
2022-12-22T12:31:45.299Z,40.30
2022-12-22T12:34:15.369Z,43.80
2022-12-22T12:37:11.239Z,47.80
2022-12-22T12:39:58.654Z,44.70
2022-12-22T12:42:41.724Z,49.70
2022-12-22T12:45:47.637Z,46.10
2022-12-22T12:48:20.726Z,46.40
2022-12-22T12:50:51.304Z,44.80
2022-12-22T12:53:19.936Z,45.00
2022-12-22T12:55:49.528Z,44.50
2022-12-22T12:58:34.926Z,43.30
2022-12-22T13:01:04.203Z,56.10
2022-12-22T13:04:01.769Z,53.80
2022-12-22T13:06:49.421Z,61.60
2022-12-22T13:09:49.313Z,63.60
2022-12-22T13:12:53.283Z,57.00
2022-12-22T13:15:38.327Z,50.70
2022-12-22T13:18:24.026Z,47.70
2022-12-22T13:21:50.813Z,45.90
2022-12-22T13:24:23.354Z,50.60
2022-12-22T13:26:44.927Z,49.40
2022-12-22T13:29:49.081Z,56.30
2022-12-22T13:32:23.624Z,56.10
2022-12-22T13:35:31.646Z,62.00
2022-12-22T13:37:59.761Z,59.00
2022-12-22T13:40:30.404Z,51.10
2022-12-22T13:43:02.825Z,51.30
2022-12-22T13:45:34.605Z,47.40
2022-12-22T13:48:07.526Z,46.70
2022-12-22T13:50:37.708Z,46.10
2022-12-22T13:53:07.642Z,48.10
2022-12-22T13:55:35.802Z,48.00
2022-12-22T13:58:08.857Z,48.60
2022-12-22T14:00:35.783Z,51.20
2022-12-22T14:03:06.748Z,49.20
2022-12-22T14:05:35.852Z,49.50
2022-12-22T14:08:06.801Z,49.10
2022-12-22T14:10:43.472Z,52.20
2022-12-22T14:13:19.967Z,54.70
2022-12-22T14:15:46.816Z,56.70
2022-12-22T14:18:24.666Z,53.40
2022-12-22T14:20:52.123Z,50.50
2022-12-22T14:23:25.393Z,50.60
2022-12-22T14:25:55.122Z,51.70
2022-12-22T14:28:27.302Z,48.80
2022-12-22T14:30:59.570Z,53.50
2022-12-22T14:33:32.320Z,56.30
2022-12-22T14:36:21.308Z,58.10
2022-12-22T14:38:49.299Z,68.90
2022-12-22T14:41:40.730Z,71.00
2022-12-22T14:44:19.503Z,65.80
2022-12-22T14:47:15.447Z,64.90
2022-12-22T14:49:53.777Z,56.00
2022-12-22T14:52:26.107Z,51.50
2022-12-22T14:54:54.801Z,52.70
2022-12-22T14:57:37.018Z,51.30
2022-12-22T15:00:26.383Z,49.50
2022-12-22T15:02:56.600Z,48.60
2022-12-22T15:05:37.178Z,50.60
2022-12-22T15:08:43.025Z,55.20
2022-12-22T15:11:15.284Z,55.50
2022-12-22T15:13:44.040Z,54.50
2022-12-22T15:16:16.662Z,55.30
2022-12-22T15:18:43.547Z,55.40
2022-12-22T15:21:15.604Z,57.50
2022-12-22T15:23:43.237Z,58.80
2022-12-22T15:26:10.261Z,57.40
2022-12-22T15:28:37.062Z,62.20
2022-12-22T15:31:11.455Z,61.60
2022-12-22T15:33:38.264Z,63.00
2022-12-22T15:36:06.218Z,58.70
2022-12-22T15:38:38.561Z,60.00
2022-12-22T15:41:07.001Z,59.60
2022-12-22T15:43:57.077Z,80.00
2022-12-22T15:46:22.134Z,75.00
2022-12-22T15:48:49.315Z,72.80
2022-12-22T15:51:27.952Z,64.60
2022-12-22T15:53:56.735Z,64.40
2022-12-22T15:56:25.594Z,60.60
2022-12-22T15:58:53.170Z,60.20
2022-12-22T16:01:19.840Z,59.50
2022-12-22T16:03:46.756Z,53.50
2022-12-22T16:06:16.534Z,53.10
2022-12-22T16:08:48.880Z,48.10
2022-12-22T16:11:16.650Z,49.20
2022-12-22T16:13:44.132Z,52.50
2022-12-22T16:16:11.481Z,54.90
2022-12-22T16:18:38.350Z,51.10
2022-12-22T16:21:11.424Z,57.10
2022-12-22T16:23:40.841Z,53.20
2022-12-22T16:26:08.143Z,54.30
2022-12-22T16:28:35.174Z,51.30
2022-12-22T16:31:02.144Z,49.10
2022-12-22T16:33:28.939Z,46.80
2022-12-22T16:35:55.764Z,44.00
2022-12-22T16:38:22.357Z,47.00
2022-12-22T16:40:51.615Z,45.50
2022-12-22T16:46:15.722Z,58.10
2022-12-22T16:48:45.819Z,49.70
2022-12-22T16:51:33.452Z,50.00
2022-12-22T16:54:01.544Z,45.90
2022-12-22T16:56:30.627Z,45.60
2022-12-22T16:58:58.201Z,45.20
2022-12-22T17:01:25.088Z,45.70
2022-12-22T17:03:52.560Z,46.90
2022-12-22T17:06:19.319Z,44.00
2022-12-22T17:08:46.505Z,42.60
2022-12-22T17:11:20.900Z,46.10
2022-12-22T17:13:50.063Z,43.40
2022-12-22T17:16:22.196Z,44.60
2022-12-22T17:18:49.849Z,42.20
2022-12-22T17:21:18.532Z,45.50
2022-12-22T17:23:52.277Z,46.10
2022-12-22T17:26:21.989Z,46.80
2022-12-22T17:28:49.572Z,44.00
2022-12-22T17:31:19.893Z,41.60
2022-12-22T17:33:47.447Z,42.20
2022-12-22T17:36:42.026Z,46.40
2022-12-22T17:39:16.026Z,42.30
2022-12-22T17:41:42.763Z,41.80
2022-12-22T17:44:18.304Z,39.70
2022-12-22T17:46:45.614Z,37.10
2022-12-22T17:49:12.819Z,38.30
2022-12-22T17:51:41.342Z,39.70
2022-12-22T17:54:21.850Z,39.20
2022-12-22T17:56:48.901Z,38.30
2022-12-22T17:59:15.645Z,37.60
2022-12-22T18:01:42.588Z,37.90
2022-12-22T18:04:09.494Z,37.20
2022-12-22T18:06:39.135Z,38.60
2022-12-22T18:09:07.500Z,38.50
2022-12-22T18:11:34.476Z,41.70
2022-12-22T18:14:02.334Z,46.30
2022-12-22T18:16:29.090Z,46.20
2022-12-22T18:18:55.913Z,46.70
2022-12-22T18:21:24.173Z,44.40
2022-12-22T18:23:51.755Z,44.00
2022-12-22T18:26:25.836Z,44.10
2022-12-22T18:28:53.325Z,41.90
2022-12-22T18:31:21.428Z,41.00
2022-12-22T18:33:48.426Z,39.20
2022-12-22T18:36:22.419Z,40.90
2022-12-22T18:38:49.596Z,41.90
2022-12-22T18:41:24.831Z,42.50
2022-12-22T18:43:52.378Z,44.40
2022-12-22T18:46:19.528Z,44.00
2022-12-22T18:48:47.079Z,44.40
2022-12-22T18:51:23.036Z,42.60
2022-12-22T18:53:52.042Z,44.40
2022-12-22T18:56:19.586Z,44.10
2022-12-22T18:58:46.397Z,44.80
2022-12-22T19:01:20.155Z,43.00
2022-12-22T19:03:47.959Z,42.00
2022-12-22T19:06:17.402Z,43.30
2022-12-22T19:08:46.800Z,45.00
2022-12-22T19:11:16.017Z,45.10
2022-12-22T19:13:46.949Z,45.30
2022-12-22T19:16:17.398Z,43.10
2022-12-22T19:18:44.962Z,43.30
2022-12-22T19:21:13.451Z,41.70
2022-12-22T19:23:40.502Z,42.80
2022-12-22T19:26:23.572Z,44.60
2022-12-22T19:28:53.740Z,46.40
2022-12-22T19:31:24.305Z,48.90
2022-12-22T19:33:52.253Z,49.60
2022-12-22T19:36:24.888Z,53.50
2022-12-22T19:39:02.248Z,53.60
2022-12-22T19:41:46.664Z,57.00
2022-12-22T19:44:31.552Z,48.80
2022-12-22T19:47:01.367Z,51.30
2022-12-22T19:49:28.886Z,41.40
2022-12-22T19:51:56.447Z,40.20
2022-12-22T19:54:24.163Z,40.00
2022-12-22T19:56:54.011Z,38.80
2022-12-22T19:59:42.284Z,38.60
2022-12-22T20:02:22.875Z,38.40
2022-12-22T20:04:50.268Z,40.70
2022-12-22T20:07:19.580Z,38.90
2022-12-22T20:09:46.681Z,38.40
2022-12-22T20:12:28.786Z,36.90
2022-12-22T20:14:55.531Z,35.40
2022-12-22T20:17:22.301Z,35.00
2022-12-22T20:19:48.918Z,34.30
2022-12-22T20:22:22.298Z,34.30
2022-12-22T20:24:50.087Z,33.60
2022-12-22T20:27:36.945Z,34.30
2022-12-22T20:30:04.233Z,32.70
2022-12-22T20:32:31.233Z,30.70
2022-12-22T20:34:57.893Z,31.10
2022-12-22T20:37:25.668Z,31.20
2022-12-22T20:39:52.302Z,30.50
2022-12-22T20:42:21.363Z,30.80
2022-12-22T20:45:04.007Z,30.00
2022-12-22T20:47:35.354Z,29.90
2022-12-22T20:50:02.313Z,30.30
2022-12-22T20:52:29.242Z,30.60
2022-12-22T20:54:55.892Z,30.90
2022-12-22T20:57:23.088Z,29.80
2022-12-22T20:59:55.798Z,30.20
2022-12-22T21:02:27.354Z,29.90
2022-12-22T21:04:54.551Z,29.40
2022-12-22T21:07:21.459Z,30.00
2022-12-22T21:09:48.096Z,29.80
2022-12-22T21:12:14.745Z,30.10
2022-12-22T21:14:41.324Z,29.50
2022-12-22T21:17:15.867Z,29.10
2022-12-22T21:19:42.690Z,28.70
2022-12-22T21:22:09.360Z,29.00
2022-12-22T21:24:35.943Z,30.90
2022-12-22T21:27:03.351Z,32.70
2022-12-22T21:29:30.535Z,32.20
2022-12-22T21:31:57.254Z,31.60
2022-12-22T21:34:23.866Z,31.40
2022-12-22T21:36:59.423Z,30.90
2022-12-22T21:39:31.139Z,30.90
2022-12-22T21:42:00.804Z,30.50
2022-12-22T21:44:32.953Z,31.20
2022-12-22T21:47:00.659Z,29.80
2022-12-22T21:49:30.641Z,30.90
2022-12-22T21:51:57.617Z,32.00
2022-12-22T21:54:25.409Z,31.30
2022-12-22T21:56:53.835Z,31.80
2022-12-22T21:59:20.986Z,29.80
2022-12-22T22:01:48.133Z,30.00
2022-12-22T22:04:14.891Z,30.60
2022-12-22T22:06:41.540Z,30.70
2022-12-22T22:09:08.638Z,31.50
2022-12-22T22:11:55.430Z,31.50
2022-12-22T22:14:22.131Z,32.70
2022-12-22T22:16:49.195Z,32.50
2022-12-22T22:19:17.322Z,31.00
2022-12-22T22:21:45.278Z,32.20
2022-12-22T22:24:12.323Z,31.90
2022-12-22T22:26:39.068Z,31.10
2022-12-22T22:29:06.212Z,30.90
2022-12-22T22:31:33.194Z,30.90
2022-12-22T22:34:00.133Z,28.70
2022-12-22T22:36:26.836Z,29.60
2022-12-22T22:38:53.802Z,29.80
2022-12-22T22:41:20.370Z,30.40
2022-12-22T22:43:47.029Z,30.20
2022-12-22T22:46:13.791Z,30.30
2022-12-22T22:48:40.529Z,30.00
2022-12-22T22:51:09.856Z,30.30
2022-12-22T22:53:36.584Z,30.50
2022-12-22T22:56:03.881Z,29.00
2022-12-22T22:58:30.663Z,28.70
2022-12-22T23:01:07.346Z,28.90
2022-12-22T23:03:34.691Z,28.40
2022-12-22T23:06:05.986Z,29.00
2022-12-22T23:08:33.364Z,28.70
2022-12-22T23:11:00.890Z,26.60
2022-12-22T23:13:28.101Z,27.90
2022-12-22T23:16:03.023Z,27.90
2022-12-22T23:18:32.937Z,27.50
2022-12-22T23:21:01.478Z,26.60
2022-12-22T23:23:29.900Z,27.90
2022-12-22T23:25:56.743Z,27.90
2022-12-22T23:28:23.691Z,28.20
2022-12-22T23:30:52.182Z,28.10
2022-12-22T23:33:19.927Z,26.90
2022-12-22T23:35:48.642Z,26.70
2022-12-22T23:38:17.664Z,26.40
2022-12-22T23:40:53.406Z,24.50
2022-12-22T23:43:21.029Z,25.00
2022-12-22T23:45:47.704Z,24.40
2022-12-22T23:48:14.387Z,24.20
2022-12-22T23:50:40.985Z,25.10
2022-12-22T23:53:07.630Z,27.10
2022-12-22T23:55:34.301Z,25.70
2022-12-22T23:58:00.861Z,26.50
